createdAt,value
2019-06-07T00:00:01.959Z,28.03
2019-06-07T00:02:29.483Z,36.10
2019-06-07T00:04:57.712Z,26.13
2019-06-07T00:07:24.776Z,25.83
2019-06-07T00:09:52.556Z,24.57
2019-06-07T00:12:21.512Z,23.33
2019-06-07T00:14:49.471Z,25.77
2019-06-07T00:17:19.617Z,26.10
2019-06-07T00:19:46.575Z,29.53
2019-06-07T00:22:25.342Z,28.03
2019-06-07T00:24:44.301Z,26.07
2019-06-07T00:27:12.804Z,25.70
2019-06-07T00:29:40.635Z,24.50
2019-06-07T00:32:09.287Z,24.93
2019-06-07T00:34:37.351Z,30.20
2019-06-07T00:37:04.987Z,26.97
2019-06-07T00:39:33.052Z,22.73
2019-06-07T00:42:01.016Z,24.20
2019-06-07T00:44:28.655Z,25.93
2019-06-07T00:46:56.339Z,22.07
2019-06-07T00:49:40.113Z,25.93
2019-06-07T00:51:54.018Z,24.00
2019-06-07T00:54:24.577Z,24.17
2019-06-07T00:56:52.047Z,26.80
2019-06-07T00:59:24.273Z,24.10
2019-06-07T01:01:49.714Z,27.33
2019-06-07T01:04:19.399Z,35.63
2019-06-07T01:06:47.744Z,30.50
2019-06-07T01:09:15.387Z,35.50
2019-06-07T01:11:43.097Z,37.13
2019-06-07T01:14:10.889Z,35.37
2019-06-07T01:16:56.744Z,27.13
2019-06-07T01:19:07.563Z,28.97
2019-06-07T01:21:35.818Z,33.33
2019-06-07T01:24:11.896Z,34.40
2019-06-07T01:26:33.587Z,35.27
2019-06-07T01:29:01.238Z,30.80
2019-06-07T01:31:31.644Z,30.27
2019-06-07T01:33:57.681Z,32.03
2019-06-07T01:36:29.545Z,26.17
2019-06-07T01:38:55.556Z,27.30
2019-06-07T01:41:25.258Z,28.97
2019-06-07T01:43:52.293Z,29.90
2019-06-07T01:46:20.739Z,27.10
2019-06-07T01:48:49.888Z,28.10
2019-06-07T01:51:18.939Z,32.10
2019-06-07T01:53:46.816Z,26.87
2019-06-07T01:56:13.854Z,31.00
2019-06-07T01:58:41.631Z,25.43
2019-06-07T02:01:08.622Z,28.40
2019-06-07T02:03:36.253Z,27.70
2019-06-07T02:06:03.805Z,27.27
2019-06-07T02:08:34.286Z,26.90
2019-06-07T02:11:01.395Z,27.77
2019-06-07T02:13:30.720Z,30.77
2019-06-07T02:15:58.671Z,24.97
2019-06-07T02:18:31.302Z,25.07
2019-06-07T02:20:55.825Z,29.10
2019-06-07T02:23:27.534Z,26.20
2019-06-07T02:25:53.687Z,24.27
2019-06-07T02:28:30.091Z,28.57
2019-06-07T02:31:00.241Z,25.43
2019-06-07T02:33:25.830Z,27.90
2019-06-07T02:35:50.757Z,24.23
2019-06-07T02:38:18.854Z,23.93
2019-06-07T02:40:46.641Z,26.63
2019-06-07T02:43:14.040Z,26.07
2019-06-07T02:45:43.751Z,25.10
2019-06-07T02:48:11.267Z,23.90
2019-06-07T02:50:39.649Z,23.10
2019-06-07T02:53:07.472Z,20.90
2019-06-07T02:56:26.515Z,23.73
2019-06-07T02:58:04.115Z,23.07
2019-06-07T03:01:03.783Z,20.60
2019-06-07T03:03:15.663Z,22.60
2019-06-07T03:05:44.625Z,20.57
2019-06-07T03:08:12.888Z,21.93
2019-06-07T03:10:43.123Z,20.13
2019-06-07T03:13:14.001Z,20.10
2019-06-07T03:15:49.939Z,20.87
2019-06-07T03:18:36.419Z,20.10
2019-06-07T03:21:05.848Z,21.00
2019-06-07T03:23:36.088Z,20.90
2019-06-07T03:26:04.383Z,21.30
2019-06-07T03:28:37.083Z,19.83
2019-06-07T03:31:03.193Z,21.93
2019-06-07T03:33:33.318Z,23.77
2019-06-07T03:36:13.042Z,26.53
2019-06-07T03:38:31.994Z,21.50
2019-06-07T03:40:59.101Z,23.20
2019-06-07T03:43:27.424Z,20.50
2019-06-07T03:45:54.450Z,21.10
2019-06-07T03:48:22.239Z,23.70
2019-06-07T03:51:03.887Z,20.97
2019-06-07T03:53:18.988Z,20.83
2019-06-07T03:55:46.639Z,23.23
2019-06-07T03:58:31.968Z,21.37
2019-06-07T04:00:43.631Z,21.03
2019-06-07T04:03:31.174Z,25.53
2019-06-07T04:05:43.474Z,21.37
2019-06-07T04:08:10.005Z,21.67
2019-06-07T04:10:53.415Z,25.50
2019-06-07T04:13:06.794Z,22.27
2019-06-07T04:15:38.314Z,25.50
2019-06-07T04:18:04.226Z,21.53
2019-06-07T04:20:34.089Z,21.77
2019-06-07T04:23:01.637Z,22.03
2019-06-07T04:25:31.644Z,21.60
2019-06-07T04:27:58.617Z,25.60
2019-06-07T04:30:41.821Z,19.37
2019-06-07T04:33:09.566Z,21.40
2019-06-07T04:35:40.002Z,21.37
2019-06-07T04:38:08.119Z,25.07
2019-06-07T04:40:36.984Z,21.50
2019-06-07T04:43:05.816Z,18.90
2019-06-07T04:45:41.726Z,24.20
2019-06-07T04:48:04.345Z,19.67
2019-06-07T04:50:34.318Z,22.60
2019-06-07T04:53:02.245Z,23.53
2019-06-07T04:55:31.426Z,25.13
2019-06-07T04:57:59.482Z,21.77
2019-06-07T05:00:49.725Z,25.57
2019-06-07T05:03:01.238Z,27.17
2019-06-07T05:05:29.340Z,25.10
2019-06-07T05:07:57.350Z,26.03
2019-06-07T05:10:25.368Z,23.27
2019-06-07T05:12:52.668Z,20.33
2019-06-07T05:15:20.376Z,23.70
2019-06-07T05:17:47.913Z,17.90
2019-06-07T05:20:16.751Z,18.20
2019-06-07T05:22:45.460Z,20.87
2019-06-07T05:25:12.599Z,16.40
2019-06-07T05:27:45.964Z,17.70
2019-06-07T05:30:36.438Z,16.67
2019-06-07T05:32:45.207Z,20.63
2019-06-07T05:35:09.033Z,17.27
2019-06-07T05:37:38.026Z,15.03
2019-06-07T05:40:06.765Z,16.20
2019-06-07T05:42:40.214Z,15.90
2019-06-07T05:45:05.232Z,16.27
2019-06-07T05:47:37.508Z,16.20
2019-06-07T05:50:02.212Z,15.87
2019-06-07T05:52:30.233Z,14.10
2019-06-07T05:54:58.429Z,18.20
2019-06-07T05:57:26.055Z,16.27
2019-06-07T05:59:54.050Z,20.60
2019-06-07T06:02:24.550Z,19.50
2019-06-07T06:04:51.498Z,21.60
2019-06-07T06:07:18.928Z,17.67
2019-06-07T06:09:47.514Z,18.23
2019-06-07T06:12:33.547Z,16.90
2019-06-07T06:14:46.870Z,20.73
2019-06-07T06:17:14.557Z,16.07
2019-06-07T06:19:47.508Z,17.03
2019-06-07T06:22:11.103Z,18.70
2019-06-07T06:24:40.001Z,15.93
2019-06-07T06:27:40.746Z,16.23
2019-06-07T06:29:40.133Z,15.57
2019-06-07T06:32:41.226Z,18.80
2019-06-07T06:34:40.018Z,14.90
2019-06-07T06:37:07.069Z,16.30
2019-06-07T06:39:34.235Z,14.63
2019-06-07T06:42:03.968Z,10.83
2019-06-07T06:44:31.417Z,11.97
2019-06-07T06:46:59.081Z,9.67
2019-06-07T06:49:26.365Z,11.20
2019-06-07T06:51:54.520Z,17.73
2019-06-07T06:54:39.601Z,12.20
2019-06-07T06:56:52.777Z,13.10
2019-06-07T06:59:38.073Z,12.17
2019-06-07T07:01:52.330Z,13.80
2019-06-07T07:04:18.194Z,12.63
2019-06-07T07:06:47.990Z,12.67
2019-06-07T07:09:15.073Z,15.47
2019-06-07T07:11:55.278Z,14.20
2019-06-07T07:14:13.049Z,17.30
2019-06-07T07:16:42.240Z,19.87
2019-06-07T07:19:10.099Z,21.07
2019-06-07T07:21:37.541Z,17.97
2019-06-07T07:24:21.101Z,16.23
2019-06-07T07:26:34.612Z,20.30
2019-06-07T07:29:02.095Z,15.73
2019-06-07T07:31:29.544Z,19.53
2019-06-07T07:34:28.697Z,13.57
2019-06-07T07:36:38.982Z,15.40
2019-06-07T07:39:03.471Z,16.20
2019-06-07T07:41:25.599Z,13.33
2019-06-07T07:44:04.442Z,14.87
2019-06-07T07:46:30.125Z,13.43
2019-06-07T07:48:54.203Z,18.73
2019-06-07T07:51:20.907Z,14.13
2019-06-07T07:53:58.982Z,13.83
2019-06-07T07:56:17.694Z,23.50
2019-06-07T07:58:49.742Z,11.63
2019-06-07T08:01:14.614Z,22.73
2019-06-07T08:03:41.712Z,11.83
2019-06-07T08:06:09.385Z,10.30
2019-06-07T08:08:36.732Z,13.73
2019-06-07T08:11:03.759Z,12.37
2019-06-07T08:13:31.764Z,9.20
2019-06-07T08:16:06.216Z,10.93
2019-06-07T08:18:28.482Z,9.80
2019-06-07T08:21:20.326Z,13.60
2019-06-07T08:23:25.871Z,9.93
2019-06-07T08:25:59.547Z,9.20
2019-06-07T08:28:22.699Z,11.43
2019-06-07T08:30:55.179Z,9.97
2019-06-07T08:33:27.018Z,10.27
2019-06-07T08:36:16.944Z,10.90
2019-06-07T08:38:27.447Z,10.17
2019-06-07T08:40:54.631Z,16.30
2019-06-07T08:43:21.043Z,10.93
2019-06-07T08:45:47.162Z,12.60
2019-06-07T08:48:27.389Z,17.33
2019-06-07T08:50:43.895Z,13.23
2019-06-07T08:53:12.497Z,13.33
2019-06-07T08:55:40.032Z,13.73
2019-06-07T08:58:08.738Z,12.97
2019-06-07T09:00:47.246Z,16.77
2019-06-07T09:03:07.494Z,15.10
2019-06-07T09:05:35.305Z,11.73
2019-06-07T09:08:23.647Z,13.93
2019-06-07T09:10:32.755Z,14.77
2019-06-07T09:13:07.500Z,13.17
2019-06-07T09:15:29.936Z,13.70
2019-06-07T09:18:35.021Z,13.50
2019-06-07T09:20:48.555Z,13.20
2019-06-07T09:23:17.643Z,12.90
2019-06-07T09:26:00.875Z,15.37
2019-06-07T09:28:19.741Z,14.20
2019-06-07T09:30:45.197Z,12.17
2019-06-07T09:33:12.671Z,17.43
2019-06-07T09:35:40.699Z,11.60
2019-06-07T09:38:23.388Z,10.37
2019-06-07T09:40:37.212Z,10.47
2019-06-07T09:43:55.400Z,10.37
2019-06-07T09:45:35.206Z,10.07
2019-06-07T09:48:05.685Z,10.33
2019-06-07T09:50:31.927Z,10.40
2019-06-07T09:53:10.108Z,10.43
2019-06-07T09:55:28.425Z,8.37
2019-06-07T09:57:56.498Z,11.30
2019-06-07T10:00:42.283Z,10.50
2019-06-07T10:02:54.477Z,8.57
2019-06-07T10:05:21.916Z,11.03
2019-06-07T10:08:02.395Z,7.80
2019-06-07T10:12:48.635Z,9.70
2019-06-07T10:15:15.762Z,6.80
2019-06-07T10:17:43.478Z,6.13
2019-06-07T10:20:11.708Z,7.60
2019-06-07T10:22:39.152Z,6.20
2019-06-07T10:25:08.515Z,9.70
2019-06-07T10:27:36.495Z,8.23
2019-06-07T10:30:06.294Z,8.27
2019-06-07T10:32:33.661Z,6.57
2019-06-07T10:35:03.074Z,6.47
2019-06-07T10:37:31.216Z,6.50
2019-06-07T10:39:58.643Z,7.57
2019-06-07T10:42:26.000Z,6.40
2019-06-07T10:44:53.639Z,6.93
2019-06-07T10:47:21.033Z,5.77
2019-06-07T10:49:48.102Z,7.30
2019-06-07T10:52:14.803Z,6.13
2019-06-07T10:54:42.583Z,5.43
2019-06-07T10:57:13.816Z,5.03
2019-06-07T10:59:38.662Z,5.33
2019-06-07T11:02:07.820Z,5.27
2019-06-07T11:04:35.003Z,5.50
2019-06-07T11:07:04.363Z,8.07
2019-06-07T11:09:33.334Z,6.50
2019-06-07T11:12:01.544Z,5.23
2019-06-07T11:14:29.673Z,5.07
2019-06-07T11:16:56.651Z,5.43
2019-06-07T11:19:24.019Z,4.30
2019-06-07T11:21:52.292Z,5.40
2019-06-07T11:24:24.437Z,4.97
2019-06-07T11:26:49.158Z,8.70
2019-06-07T11:29:16.155Z,4.80
2019-06-07T11:31:47.284Z,5.33
2019-06-07T11:34:14.599Z,4.30
2019-06-07T11:36:42.090Z,7.27
2019-06-07T11:39:11.076Z,3.67
2019-06-07T11:41:38.707Z,4.13
2019-06-07T11:44:06.704Z,8.77
2019-06-07T11:46:34.366Z,5.10
2019-06-07T11:49:02.049Z,4.70
2019-06-07T11:51:29.552Z,4.53
2019-06-07T11:53:57.352Z,4.13
2019-06-07T11:56:24.756Z,5.97
2019-06-07T11:58:54.903Z,4.40
2019-06-07T12:01:21.945Z,4.10
2019-06-07T12:03:49.311Z,4.30
2019-06-07T12:06:18.124Z,3.50
2019-06-07T12:08:45.219Z,3.30
2019-06-07T12:11:14.279Z,2.73
2019-06-07T12:13:41.923Z,5.17
2019-06-07T12:16:11.178Z,5.00
2019-06-07T12:18:38.927Z,4.70
2019-06-07T12:21:05.967Z,4.07
2019-06-07T12:23:34.425Z,4.20
2019-06-07T12:26:03.278Z,4.27
2019-06-07T12:28:30.648Z,6.90
2019-06-07T12:30:57.955Z,4.87
2019-06-07T12:33:25.616Z,4.20
2019-06-07T12:35:52.631Z,10.63
2019-06-07T12:38:21.070Z,4.13
2019-06-07T12:40:57.499Z,5.83
2019-06-07T12:43:19.217Z,3.70
2019-06-07T12:45:46.964Z,3.47
2019-06-07T12:48:17.602Z,10.10
2019-06-07T12:50:44.062Z,3.27
2019-06-07T12:53:11.671Z,3.90
2019-06-07T12:55:42.793Z,3.30
2019-06-07T12:58:10.519Z,4.03
2019-06-07T13:00:37.548Z,2.80
2019-06-07T13:03:04.640Z,3.10
2019-06-07T13:05:32.388Z,5.30
2019-06-07T13:08:00.501Z,2.90
2019-06-07T13:10:28.577Z,3.40
2019-06-07T13:12:56.427Z,3.20
2019-06-07T13:15:25.975Z,2.30
2019-06-07T13:17:54.004Z,4.97
2019-06-07T13:20:22.691Z,5.33
2019-06-07T13:22:50.598Z,4.63
2019-06-07T13:25:21.260Z,2.80
2019-06-07T13:27:49.105Z,3.77
2019-06-07T13:30:18.814Z,2.20
2019-06-07T13:32:46.490Z,3.03
2019-06-07T13:35:14.406Z,3.83
2019-06-07T13:37:42.725Z,1.70
2019-06-07T13:40:10.158Z,2.60
2019-06-07T13:42:37.172Z,5.20
2019-06-07T13:45:06.797Z,2.43
2019-06-07T13:47:34.240Z,3.43
2019-06-07T13:50:02.066Z,4.70
2019-06-07T13:52:29.814Z,4.70
2019-06-07T13:54:57.510Z,2.30
2019-06-07T13:57:26.061Z,4.63
2019-06-07T13:59:53.592Z,3.70
2019-06-07T14:02:21.251Z,2.50
2019-06-07T14:04:49.844Z,5.60
2019-06-07T14:07:18.861Z,4.80
2019-06-07T14:09:46.829Z,5.37
2019-06-07T14:12:16.486Z,13.73
2019-06-07T14:14:44.598Z,2.90
2019-06-07T14:17:12.396Z,4.13
2019-06-07T14:19:39.435Z,3.57
2019-06-07T14:22:06.814Z,2.77
2019-06-07T14:24:34.838Z,3.47
2019-06-07T14:27:05.183Z,2.63
2019-06-07T14:29:32.337Z,2.90
2019-06-07T14:31:59.708Z,3.33
2019-06-07T14:34:28.701Z,3.10
2019-06-07T14:36:57.201Z,2.70
2019-06-07T14:39:24.985Z,2.83
2019-06-07T14:42:08.032Z,7.33
2019-06-07T14:44:21.407Z,4.23
2019-06-07T14:46:48.506Z,5.90
2019-06-07T14:49:15.870Z,3.70
2019-06-07T14:51:43.556Z,4.00
2019-06-07T14:54:10.625Z,7.07
2019-06-07T14:56:37.645Z,3.93
2019-06-07T14:59:05.030Z,3.90
2019-06-07T15:01:33.534Z,8.53
2019-06-07T15:04:01.372Z,3.63
2019-06-07T15:06:28.650Z,2.00
2019-06-07T15:08:56.159Z,2.10
2019-06-07T15:11:23.516Z,2.63
2019-06-07T15:13:51.232Z,2.27
2019-06-07T15:16:18.585Z,2.40
2019-06-07T15:18:45.598Z,2.73
2019-06-07T15:21:13.570Z,3.87
2019-06-07T15:23:41.014Z,2.47
2019-06-07T15:26:08.387Z,3.60
2019-06-07T15:28:37.053Z,3.20
2019-06-07T15:31:05.396Z,3.07
2019-06-07T15:33:34.332Z,3.30
2019-06-07T15:36:03.859Z,4.17
2019-06-07T15:38:32.885Z,2.20
2019-06-07T15:41:01.779Z,6.97
2019-06-07T15:43:31.111Z,2.33
2019-06-07T15:45:58.674Z,5.10
2019-06-07T15:48:25.670Z,2.50
2019-06-07T15:50:53.073Z,4.27
2019-06-07T15:53:21.284Z,4.70
2019-06-07T15:55:48.971Z,3.13
2019-06-07T15:58:16.012Z,3.50
2019-06-07T16:00:43.010Z,2.90
2019-06-07T16:03:10.480Z,7.87
2019-06-07T16:05:38.269Z,5.00
2019-06-07T16:08:05.776Z,10.27
2019-06-07T16:10:34.585Z,3.13
2019-06-07T16:13:01.856Z,4.50
2019-06-07T16:15:29.331Z,3.20
2019-06-07T16:17:57.135Z,4.77
2019-06-07T16:20:24.440Z,3.43
2019-06-07T16:22:52.079Z,3.50
2019-06-07T16:25:19.715Z,2.83
2019-06-07T16:27:46.751Z,4.57
2019-06-07T16:30:14.545Z,3.13
2019-06-07T16:32:42.329Z,2.93
2019-06-07T16:35:12.741Z,2.70
2019-06-07T16:37:40.964Z,9.10
2019-06-07T16:40:09.556Z,5.40
2019-06-07T16:42:36.611Z,8.57
2019-06-07T16:45:04.446Z,5.40
2019-06-07T16:47:32.083Z,4.10
2019-06-07T16:49:59.505Z,4.77
2019-06-07T16:52:26.880Z,4.83
2019-06-07T16:54:54.360Z,3.70
2019-06-07T16:57:22.477Z,3.37
2019-06-07T16:59:50.897Z,3.07
2019-06-07T17:02:17.990Z,4.10
2019-06-07T17:04:45.671Z,4.33
2019-06-07T17:07:13.152Z,4.13
2019-06-07T17:09:42.251Z,3.50
2019-06-07T17:12:10.172Z,4.03
2019-06-07T17:14:40.376Z,3.53
2019-06-07T17:17:07.856Z,3.70
2019-06-07T17:19:35.270Z,3.40
2019-06-07T17:22:06.951Z,3.70
2019-06-07T17:24:33.988Z,3.07
2019-06-07T17:27:01.520Z,3.40
2019-06-07T17:29:29.310Z,4.10
2019-06-07T17:31:56.757Z,2.70
2019-06-07T17:34:24.152Z,4.30
2019-06-07T17:36:52.364Z,3.30
2019-06-07T17:39:19.825Z,3.90
2019-06-07T17:41:58.640Z,3.43
2019-06-07T17:44:16.866Z,3.20
2019-06-07T17:46:43.839Z,4.20
2019-06-07T17:49:11.267Z,3.60
2019-06-07T17:51:39.048Z,3.70
2019-06-07T17:54:06.489Z,7.20
2019-06-07T17:56:33.951Z,6.47
2019-06-07T17:59:02.254Z,5.13
2019-06-07T18:01:40.968Z,4.50
2019-06-07T18:03:58.907Z,9.80
2019-06-07T18:06:27.871Z,6.83
2019-06-07T18:08:57.128Z,14.87
2019-06-07T18:11:24.869Z,8.10
2019-06-07T18:14:09.845Z,7.57
2019-06-07T18:16:21.252Z,5.67
2019-06-07T18:18:48.796Z,6.20
2019-06-07T18:21:16.256Z,5.93
2019-06-07T18:23:44.096Z,6.13
2019-06-07T18:26:11.461Z,9.40
2019-06-07T18:28:39.165Z,7.97
2019-06-07T18:31:06.691Z,7.67
2019-06-07T18:33:34.120Z,7.23
2019-06-07T18:36:02.080Z,6.60
2019-06-07T18:38:29.111Z,2.50
2019-06-07T18:40:57.438Z,3.60
2019-06-07T18:43:24.777Z,6.70
2019-06-07T19:00:15.567Z,4.73
2019-06-07T19:02:42.973Z,2.10
2019-06-07T19:05:10.713Z,5.60
2019-06-07T19:07:37.871Z,2.10
2019-06-07T19:15:28.899Z,3.23
2019-06-07T19:17:56.211Z,3.10
2019-06-07T19:20:24.836Z,3.70
2019-06-07T19:22:52.314Z,3.63
2019-06-07T19:25:20.084Z,1.00
2019-06-07T19:27:47.130Z,1.93
2019-06-07T19:30:14.240Z,1.57
2019-06-07T19:32:41.703Z,4.83
2019-06-07T19:35:08.938Z,0.90
2019-06-07T19:37:36.355Z,1.87
2019-06-07T19:40:04.710Z,4.13
2019-06-07T19:42:32.075Z,1.67
2019-06-07T19:45:24.528Z,1.60
2019-06-07T19:47:28.824Z,1.00
2019-06-07T19:49:56.717Z,6.20
2019-06-07T19:52:24.468Z,1.70
2019-06-07T19:54:51.590Z,1.03
2019-06-07T19:57:18.893Z,2.43
2019-06-07T19:59:45.941Z,1.40
2019-06-07T20:02:13.736Z,0.90
2019-06-07T20:04:41.104Z,3.10
2019-06-07T20:07:08.187Z,5.13
2019-06-07T20:09:36.071Z,3.07
2019-06-07T20:12:04.753Z,1.30
2019-06-07T20:14:32.639Z,2.20
2019-06-07T20:17:01.385Z,3.90
2019-06-07T20:19:28.971Z,3.80
2019-06-07T20:21:56.938Z,2.37
2019-06-07T20:24:27.473Z,1.73
2019-06-07T20:26:56.152Z,1.07
2019-06-07T20:29:26.294Z,3.00
2019-06-07T20:31:53.011Z,0.90
2019-06-07T20:34:20.979Z,2.13
2019-06-07T20:36:48.550Z,1.03
2019-06-07T20:39:15.551Z,1.07
2019-06-07T20:41:43.183Z,2.40
2019-06-07T20:44:11.284Z,2.70
2019-06-07T20:46:38.893Z,0.70
2019-06-07T20:49:08.425Z,1.57
2019-06-07T20:51:37.410Z,3.17
2019-06-07T20:54:05.601Z,3.47
2019-06-07T20:56:33.762Z,3.20
2019-06-07T20:59:02.791Z,0.93
2019-06-07T21:01:29.907Z,2.23
2019-06-07T21:03:58.981Z,2.50
2019-06-07T21:06:26.628Z,1.37
2019-06-07T21:08:54.445Z,3.13
2019-06-07T21:11:22.005Z,7.10
2019-06-07T21:13:49.770Z,2.10
2019-06-07T21:16:17.196Z,1.17
2019-06-07T21:18:45.850Z,0.70
2019-06-07T21:21:12.922Z,1.60
2019-06-07T21:23:40.430Z,2.40
2019-06-07T21:26:09.399Z,4.73
2019-06-07T21:28:39.783Z,1.33
2019-06-07T21:31:08.192Z,0.80
2019-06-07T21:33:38.649Z,3.13
2019-06-07T21:36:06.239Z,1.13
2019-06-07T21:38:34.853Z,0.70
2019-06-07T21:41:02.213Z,0.90
2019-06-07T21:43:29.513Z,2.83
2019-06-07T21:46:05.527Z,1.80
2019-06-07T21:48:27.129Z,2.03
2019-06-07T21:50:54.137Z,0.83
2019-06-07T21:53:22.229Z,5.80
2019-06-07T21:55:49.317Z,0.80
2019-06-07T21:58:16.699Z,2.10
2019-06-07T22:01:17.749Z,0.90
2019-06-07T22:03:45.630Z,1.40
2019-06-07T22:06:13.762Z,0.60
2019-06-07T22:08:41.731Z,3.33
2019-06-07T22:11:10.085Z,5.40
2019-06-07T22:13:37.839Z,0.80
2019-06-07T22:16:19.902Z,0.73
2019-06-07T22:18:34.460Z,1.23
2019-06-07T22:21:02.046Z,1.40
2019-06-07T22:23:30.242Z,5.67
2019-06-07T22:25:57.329Z,2.00
2019-06-07T22:28:24.412Z,1.57
2019-06-07T22:30:51.868Z,2.20
2019-06-07T22:33:19.244Z,1.90
2019-06-07T22:35:47.063Z,0.83
2019-06-07T22:38:14.485Z,1.17
2019-06-07T22:40:41.842Z,0.60
2019-06-07T22:43:09.641Z,2.63
2019-06-07T22:45:37.439Z,1.37
2019-06-07T22:48:05.497Z,1.90
2019-06-07T22:50:33.923Z,2.30
2019-06-07T22:53:00.945Z,3.00
2019-06-07T22:55:29.023Z,1.80
2019-06-07T22:57:57.978Z,3.53
2019-06-07T23:00:27.091Z,2.10
2019-06-07T23:02:54.848Z,4.30
2019-06-07T23:05:22.317Z,2.93
2019-06-07T23:07:49.887Z,2.37
2019-06-07T23:10:17.517Z,1.00
2019-06-07T23:12:44.941Z,1.27
2019-06-07T23:15:13.429Z,2.30
2019-06-07T23:17:41.445Z,1.60
2019-06-07T23:20:09.719Z,0.60
2019-06-07T23:22:37.094Z,1.80
2019-06-07T23:25:04.675Z,0.50
2019-06-07T23:27:32.061Z,1.53
2019-06-07T23:29:59.771Z,0.97
2019-06-07T23:32:27.248Z,0.77
2019-06-07T23:34:55.126Z,0.87
2019-06-07T23:37:22.866Z,1.00
2019-06-07T23:39:51.040Z,1.50
2019-06-07T23:42:19.746Z,0.70
2019-06-07T23:44:47.646Z,0.70
2019-06-07T23:47:17.004Z,4.10
2019-06-07T23:49:43.964Z,2.13
2019-06-07T23:52:11.680Z,2.50
2019-06-07T23:54:39.562Z,1.47
2019-06-07T23:57:07.216Z,1.13
2019-06-07T23:59:34.539Z,2.20
